createdAt,value
2023-05-03T00:00:43.361Z,10.60
2023-05-03T00:05:42.100Z,10.60
2023-05-03T00:10:40.210Z,10.60
2023-05-03T00:15:39.981Z,10.50
2023-05-03T00:20:38.212Z,10.40
2023-05-03T00:25:36.580Z,10.40
2023-05-03T00:30:34.818Z,10.30
2023-05-03T00:35:34.413Z,10.20
2023-05-03T00:40:32.665Z,10.10
2023-05-03T00:45:33.387Z,10.00
2023-05-03T00:50:31.689Z,10.00
2023-05-03T00:55:32.580Z,9.90
2023-05-03T01:00:31.135Z,9.80
2023-05-03T01:05:33.389Z,9.80
2023-05-03T01:10:42.792Z,9.70
2023-05-03T01:15:51.037Z,9.70
2023-05-03T01:20:51.694Z,9.70
2023-05-03T01:25:54.530Z,9.60
2023-05-03T01:30:54.540Z,9.50
2023-05-03T01:35:57.192Z,9.40
2023-05-03T01:41:01.781Z,9.30
2023-05-03T01:46:00.423Z,9.30
2023-05-03T01:50:58.489Z,9.20
2023-05-03T01:55:58.210Z,9.10
2023-05-03T02:00:56.470Z,9.10
2023-05-03T02:05:54.718Z,9.10
2023-05-03T02:10:52.909Z,9.00
2023-05-03T02:15:52.445Z,8.90
2023-05-03T02:20:50.803Z,8.80
2023-05-03T02:25:49.746Z,8.70
2023-05-03T02:30:47.958Z,8.70
2023-05-03T02:35:47.599Z,8.70
2023-05-03T02:40:45.876Z,8.50
2023-05-03T02:45:44.626Z,8.40
2023-05-03T02:50:44.144Z,8.40
2023-05-03T02:55:44.815Z,8.40
2023-05-03T03:00:43.358Z,8.40
2023-05-03T03:05:42.184Z,8.40
2023-05-03T03:10:40.711Z,8.30
2023-05-03T03:15:43.052Z,8.30
2023-05-03T03:20:41.243Z,8.30
2023-05-03T03:25:39.904Z,8.10
2023-05-03T03:30:38.350Z,8.00
2023-05-03T03:35:48.781Z,8.10
2023-05-03T03:40:49.017Z,8.10
2023-05-03T03:45:48.414Z,8.00
2023-05-03T03:50:50.054Z,8.00
2023-05-03T03:55:50.478Z,8.00
2023-05-03T04:00:49.826Z,7.90
2023-05-03T04:05:53.319Z,7.90
2023-05-03T04:10:52.989Z,7.90
2023-05-03T04:15:55.025Z,7.80
2023-05-03T04:20:54.772Z,7.80
2023-05-03T04:25:53.530Z,7.90
2023-05-03T04:30:53.476Z,8.00
2023-05-03T04:35:59.105Z,8.00
2023-05-03T04:40:58.222Z,8.00
2023-05-03T04:45:57.664Z,8.00
2023-05-03T04:50:59.721Z,8.00
2023-05-03T04:55:58.394Z,8.30
2023-05-03T05:00:57.404Z,8.30
2023-05-03T05:06:01.612Z,8.40
2023-05-03T05:11:03.998Z,8.60
2023-05-03T05:16:03.956Z,8.70
2023-05-03T05:21:04.623Z,8.80
2023-05-03T05:26:04.892Z,8.80
2023-05-03T05:31:04.373Z,8.90
2023-05-03T05:36:05.335Z,8.90
2023-05-03T05:41:06.533Z,9.00
2023-05-03T05:46:05.735Z,9.10
2023-05-03T05:51:06.438Z,9.20
2023-05-03T05:56:06.304Z,9.40
2023-05-03T06:01:06.163Z,9.50
2023-05-03T06:06:09.628Z,9.70
2023-05-03T06:11:08.336Z,9.90
2023-05-03T06:16:07.777Z,10.10
2023-05-03T06:21:06.146Z,10.20
2023-05-03T06:26:06.514Z,10.30
2023-05-03T06:31:05.006Z,10.50
2023-05-03T06:36:05.053Z,10.40
2023-05-03T06:41:03.391Z,10.50
2023-05-03T06:46:03.569Z,10.80
2023-05-03T06:51:01.821Z,11.00
2023-05-03T06:56:00.871Z,11.10
2023-05-03T07:00:58.929Z,11.30
2023-05-03T07:05:58.965Z,11.40
2023-05-03T07:10:57.217Z,11.10
2023-05-03T07:15:55.479Z,11.00
2023-05-03T07:20:53.923Z,11.20
2023-05-03T07:25:54.120Z,11.60
2023-05-03T07:30:52.632Z,11.80
2023-05-03T07:35:50.956Z,11.70
2023-05-03T07:40:49.115Z,11.80
2023-05-03T07:45:48.734Z,11.70
2023-05-03T07:50:46.985Z,11.80
2023-05-03T07:55:45.126Z,11.90
2023-05-03T08:00:43.364Z,12.00
2023-05-03T08:05:43.719Z,12.40
2023-05-03T08:10:42.012Z,12.80
2023-05-03T08:15:40.254Z,13.10
2023-05-03T08:20:39.672Z,13.00
2023-05-03T08:25:39.019Z,12.70
2023-05-03T08:30:37.890Z,12.90
2023-05-03T08:35:36.125Z,13.50
2023-05-03T08:40:37.503Z,14.00
2023-05-03T08:45:37.447Z,14.20
2023-05-03T08:50:42.242Z,14.40
2023-05-03T08:55:40.657Z,14.70
2023-05-03T09:00:41.771Z,14.70
2023-05-03T09:05:41.506Z,14.80
2023-05-03T09:10:41.270Z,15.00
2023-05-03T09:15:41.207Z,16.20
2023-05-03T09:20:42.493Z,16.70
2023-05-03T09:25:48.388Z,18.00
2023-05-03T09:30:48.660Z,18.90
2023-05-03T09:35:57.855Z,18.90
2023-05-03T09:40:56.068Z,19.20
2023-05-03T09:46:09.425Z,19.40
2023-05-03T09:51:08.299Z,20.10
2023-05-03T09:56:09.163Z,20.40
2023-05-03T10:01:09.835Z,20.90
2023-05-03T10:06:18.224Z,21.60
2023-05-03T10:11:19.011Z,21.10
2023-05-03T10:16:22.990Z,20.70
2023-05-03T10:21:32.236Z,20.40
2023-05-03T10:26:30.460Z,20.30
2023-05-03T10:31:49.128Z,19.40
2023-05-03T10:36:50.045Z,18.70
2023-05-03T10:41:59.723Z,18.90
2023-05-03T10:47:10.494Z,19.20
2023-05-03T10:52:42.049Z,19.70
2023-05-03T10:57:42.563Z,19.70
2023-05-03T11:02:52.252Z,19.90
2023-05-03T11:07:50.519Z,19.90
2023-05-03T11:12:50.004Z,19.20
2023-05-03T11:17:49.582Z,18.80
2023-05-03T11:22:47.845Z,19.00
2023-05-03T11:27:47.907Z,19.30
2023-05-03T11:32:46.112Z,18.70
2023-05-03T11:37:45.870Z,18.90
2023-05-03T11:42:54.357Z,19.50
2023-05-03T11:47:53.610Z,20.20
2023-05-03T11:52:53.251Z,20.50
2023-05-03T11:57:52.432Z,20.30
2023-05-03T12:02:50.904Z,20.20
2023-05-03T12:07:50.613Z,20.00
2023-05-03T12:13:00.210Z,19.70
2023-05-03T12:18:00.858Z,19.90
2023-05-03T12:23:04.260Z,20.00
2023-05-03T12:33:08.153Z,19.40
2023-05-03T12:38:09.863Z,19.60
2023-05-03T12:43:10.265Z,19.90
2023-05-03T12:48:08.704Z,20.20
2023-05-03T12:53:09.838Z,20.50
2023-05-03T13:03:21.441Z,19.20
2023-05-03T13:08:21.917Z,19.10
2023-05-03T13:13:21.754Z,19.30
2023-05-03T13:18:20.114Z,19.30
2023-05-03T13:23:18.323Z,19.50
2023-05-03T13:28:20.542Z,19.60
2023-05-03T13:33:20.160Z,19.70
2023-05-03T13:38:18.385Z,19.70
2023-05-03T13:43:16.585Z,19.90
2023-05-03T13:48:18.367Z,20.20
2023-05-03T13:53:18.989Z,20.20
2023-05-03T13:58:17.325Z,20.10
2023-05-03T14:03:15.528Z,20.40
2023-05-03T14:08:14.061Z,20.10
2023-05-03T14:13:13.788Z,20.00
2023-05-03T14:18:12.338Z,20.10
2023-05-03T14:23:10.915Z,20.10
2023-05-03T14:28:09.344Z,20.50
2023-05-03T14:33:10.177Z,20.70
2023-05-03T14:38:08.766Z,21.00
2023-05-03T14:43:08.016Z,21.10
2023-05-03T14:48:08.253Z,21.00
2023-05-03T14:53:06.327Z,20.70
2023-05-03T14:58:05.532Z,20.80
2023-05-03T15:03:05.258Z,20.80
2023-05-03T15:08:05.713Z,21.00
2023-05-03T15:13:04.003Z,21.50
2023-05-03T15:18:02.258Z,21.10
2023-05-03T15:23:00.563Z,20.20
2023-05-03T15:28:03.856Z,19.50
2023-05-03T15:33:04.435Z,19.30
2023-05-03T15:38:02.450Z,19.60
2023-05-03T15:43:02.226Z,19.70
2023-05-03T15:48:00.492Z,19.60
2023-05-03T15:52:58.700Z,19.40
2023-05-03T15:57:57.263Z,19.50
2023-05-03T16:02:57.453Z,19.70
2023-05-03T16:07:55.782Z,20.10
2023-05-03T16:12:53.997Z,20.40
2023-05-03T16:17:54.250Z,20.50
2023-05-03T16:22:53.841Z,20.10
2023-05-03T16:27:52.491Z,19.70
2023-05-03T16:32:52.513Z,19.50
2023-05-03T16:37:52.038Z,19.60
2023-05-03T16:42:52.143Z,19.50
2023-05-03T16:47:51.124Z,19.40
2023-05-03T16:52:49.340Z,19.20
2023-05-03T16:57:47.541Z,19.10
2023-05-03T17:02:47.164Z,18.80
2023-05-03T17:07:46.187Z,18.70
2023-05-03T17:12:48.061Z,18.50
2023-05-03T17:17:47.576Z,18.50
2023-05-03T17:22:45.977Z,18.50
2023-05-03T17:27:44.489Z,18.10
2023-05-03T17:32:42.763Z,17.80
2023-05-03T17:37:42.880Z,17.60
2023-05-03T17:42:41.091Z,17.30
2023-05-03T17:47:40.175Z,17.00
2023-05-03T17:52:38.376Z,16.60
2023-05-03T17:57:38.163Z,16.40
2023-05-03T18:02:36.429Z,16.20
2023-05-03T18:07:34.527Z,16.00
2023-05-03T18:12:33.037Z,16.00
2023-05-03T18:17:32.826Z,15.90
2023-05-03T18:22:31.008Z,15.70
2023-05-03T18:27:29.660Z,15.50
2023-05-03T18:32:27.890Z,15.40
2023-05-03T18:37:27.587Z,15.30
2023-05-03T18:42:26.001Z,15.20
2023-05-03T18:47:24.890Z,15.10
2023-05-03T18:52:23.861Z,14.90
2023-05-03T18:57:23.468Z,14.80
2023-05-03T19:02:21.502Z,14.80
2023-05-03T19:07:19.877Z,14.70
2023-05-03T19:12:18.077Z,14.70
2023-05-03T19:17:17.913Z,14.70
2023-05-03T19:22:16.095Z,14.60
2023-05-03T19:27:14.339Z,14.60
2023-05-03T19:32:12.639Z,14.50
2023-05-03T19:37:12.020Z,14.50
2023-05-03T19:42:10.248Z,14.50
2023-05-03T19:47:08.757Z,14.50
2023-05-03T19:52:07.266Z,14.40
2023-05-03T19:57:07.559Z,14.30
2023-05-03T20:02:06.063Z,14.20
2023-05-03T20:07:04.304Z,14.20
2023-05-03T20:12:02.586Z,14.10
2023-05-03T20:17:02.354Z,14.10
2023-05-03T20:22:00.597Z,14.00
2023-05-03T20:26:58.843Z,13.90
2023-05-03T20:31:57.066Z,13.80
2023-05-03T20:36:56.685Z,13.70
2023-05-03T20:41:54.912Z,13.60
2023-05-03T20:46:53.159Z,13.60
2023-05-03T20:51:51.403Z,13.40
2023-05-03T20:56:51.006Z,13.30
2023-05-03T21:01:49.151Z,13.20
2023-05-03T21:06:47.602Z,13.20
2023-05-03T21:11:45.819Z,13.10
2023-05-03T21:16:45.601Z,13.00
2023-05-03T21:21:43.812Z,12.90
2023-05-03T21:26:42.017Z,12.70
2023-05-03T21:31:40.725Z,12.70
2023-05-03T21:36:40.414Z,12.70
2023-05-03T21:41:38.703Z,12.60
2023-05-03T21:46:36.853Z,12.50
2023-05-03T21:51:35.277Z,12.50
2023-05-03T21:56:34.836Z,12.40
2023-05-03T22:01:33.047Z,12.40
2023-05-03T22:06:32.224Z,12.30
2023-05-03T22:11:30.846Z,12.30
2023-05-03T22:16:30.412Z,12.30
2023-05-03T22:21:28.526Z,12.30
2023-05-03T22:26:26.969Z,12.30
2023-05-03T22:31:25.700Z,12.30
2023-05-03T22:36:25.289Z,12.20
2023-05-03T22:41:23.433Z,12.20
2023-05-03T22:46:21.770Z,12.10
2023-05-03T22:51:20.499Z,12.10
2023-05-03T22:56:20.063Z,12.10
2023-05-03T23:01:18.305Z,12.00
2023-05-03T23:06:16.716Z,11.90
2023-05-03T23:11:14.901Z,11.80
2023-05-03T23:16:14.737Z,11.70
2023-05-03T23:21:12.941Z,11.60
2023-05-03T23:26:11.112Z,11.60
2023-05-03T23:31:09.852Z,11.60
2023-05-03T23:36:10.764Z,11.60
2023-05-03T23:41:08.952Z,11.60
2023-05-03T23:46:07.107Z,11.50
2023-05-03T23:51:05.840Z,11.60
2023-05-03T23:56:05.632Z,11.50
